Time;durP1;ratioP1;P1;durP2;ratioP2;P2;SDS_P1;SDS_P2;PMS_P1;PMS_P2;Temp;Humidity;BMP_temperature;BMP_pressure;BME280_temperature;BME280_humidity;BME280_pressure;Samples;Min_cycle;Max_cycle;Signal;HPM_P1;HPM_P2
2023/01/17 00:02:23;;;;;;;0.70;0.60;;;5.40;67.20;;;0.36;100.00;93038.13;4953312;28;20026;-56
2023/01/17 00:10:24;;;;;;;1.27;0.70;;;5.30;67.10;;;0.27;100.00;93025.84;4944400;28;20499;-55
2023/01/17 00:13:01;;;;;;;0.98;0.77;;;5.30;67.20;;;0.26;100.00;93035.53;4947136;28;20027;-56
2023/01/17 00:15:31;;;;;;;0.90;0.80;;;5.30;67.30;;;0.28;100.00;93030.00;4941808;28;20406;-56
2023/01/17 00:17:57;;;;;;;1.30;0.90;;;5.30;67.40;;;0.31;100.00;93026.88;4952914;28;20382;-54
2023/01/17 00:26:18;;;;;;;1.40;0.90;;;5.30;67.50;;;0.36;100.00;93030.28;4933823;29;20583;-55
2023/01/17 01:33:52;;;;;;;0.80;0.40;;;5.40;67.90;;;0.57;96.81;93022.41;4919061;28;20058;-55
2023/01/17 01:36:21;;;;;;;3.05;0.60;;;5.40;67.70;;;0.61;96.89;93028.69;4951407;28;20038;-57
2023/01/17 01:38:49;;;;;;;0.40;0.40;;;5.50;67.70;;;0.63;95.94;93027.38;4951264;28;20424;-56
2023/01/17 01:41:14;;;;;;;1.58;0.50;;;5.50;67.60;;;0.64;94.88;93028.16;4924316;29;20042;-58
2023/01/17 01:43:54;;;;;;;1.17;0.43;;;5.60;67.50;;;0.70;94.89;93019.25;4949419;28;20026;-57
2023/01/17 01:46:34;;;;;;;3.50;0.70;;;5.60;67.30;;;0.74;94.53;93027.34;4950533;28;20026;-58
2023/01/17 01:49:23;;;;;;;1.63;0.68;;;5.60;67.30;;;0.75;94.86;93023.66;4952540;28;20467;-59
2023/01/17 01:52:01;;;;;;;0.88;0.60;;;5.70;67.20;;;0.75;94.82;93024.44;4922871;29;20106;-58
2023/01/17 01:54:56;;;;;;;1.58;0.60;;;5.70;67.10;;;0.77;94.80;93039.94;4912917;29;20495;-59
2023/01/17 01:57:37;;;;;;;0.80;0.63;;;5.70;67.00;;;0.75;94.56;93032.31;4913041;29;20529;-56
2023/01/17 02:00:23;;;;;;;3.30;0.93;;;5.70;66.90;;;0.72;94.70;93027.59;4912302;29;20032;-50
2023/01/17 02:03:17;;;;;;;2.97;0.60;;;5.70;66.70;;;0.72;94.70;93026.81;4915839;29;20031;-52
2023/01/17 02:05:44;;;;;;;1.10;0.55;;;5.70;66.60;;;0.65;95.29;93017.41;4912384;29;20131;-52
2023/01/17 02:08:16;;;;;;;2.25;0.70;;;5.70;66.50;;;0.62;95.47;93020.53;4897194;29;20081;-56
2023/01/17 02:10:47;;;;;;;2.47;0.57;;;5.70;66.40;;;0.59;94.82;93023.69;4927434;29;20050;-53
2023/01/17 02:13:20;;;;;;;1.00;0.85;;;5.60;66.30;;;0.56;95.13;93016.38;4912461;29;20317;-53
2023/01/17 02:16:22;;;;;;;0.65;0.50;;;5.60;66.30;;;0.49;95.35;93005.38;4896549;29;20118;-51
2023/01/17 02:19:29;;;;;;;2.80;0.90;;;5.50;66.30;;;0.44;94.92;93003.56;4910397;29;20463;-53
2023/01/17 02:22:47;;;;;;;1.17;0.52;;;5.40;66.30;;;0.39;94.87;93006.19;4913363;29;20074;-52
2023/01/17 02:26:00;;;;;;;2.22;0.70;;;5.40;66.50;;;0.33;95.31;92999.38;4894105;29;20023;-52
2023/01/17 02:29:24;;;;;;;3.40;0.60;;;5.30;66.60;;;0.28;95.76;92995.97;4921308;29;20035;-53
2023/01/17 02:32:35;;;;;;;1.17;0.80;;;5.30;66.70;;;0.24;96.17;92987.88;4897825;29;20338;-50
2023/01/17 02:35:30;;;;;;;4.18;0.80;;;5.20;66.70;;;0.22;96.31;92989.97;4913159;29;20027;-52
2023/01/17 02:38:44;;;;;;;0.95;0.57;;;5.20;66.90;;;0.25;96.67;92992.03;4913396;29;20027;-52
2023/01/17 02:41:39;;;;;;;1.30;0.63;;;5.20;67.00;;;0.30;96.53;92988.66;4905286;29;20038;-53
2023/01/17 02:44:09;;;;;;;1.17;0.70;;;5.30;67.10;;;0.34;96.50;92989.69;4911673;29;20051;-53
2023/01/17 02:46:58;;;;;;;2.45;0.43;;;5.30;67.10;;;0.38;96.11;92993.38;4911811;29;20118;-52
2023/01/17 02:49:47;;;;;;;0.90;0.50;;;5.30;67.00;;;0.41;96.01;92987.59;4912014;29;20184;-50
2023/01/17 02:52:48;;;;;;;0.95;0.50;;;5.40;67.00;;;0.44;95.18;92984.44;4932592;29;20073;-51
2023/01/17 02:55:54;;;;;;;1.00;0.65;;;5.40;67.10;;;0.51;94.85;92984.19;4932866;29;20034;-52
2023/01/17 02:59:13;;;;;;;3.15;0.65;;;5.50;67.00;;;0.56;94.92;92984.94;4931447;29;20445;-54
2023/01/17 03:02:23;;;;;;;0.98;0.60;;;5.50;67.00;;;0.58;94.47;92974.97;4947311;29;20019;-50
2023/01/17 03:05:32;;;;;;;1.15;0.63;;;5.50;67.00;;;0.61;93.64;92971.81;4923818;29;20039;-52
2023/01/17 03:08:08;;;;;;;0.50;0.50;;;5.60;66.90;;;0.62;95.22;92962.91;4920245;29;20031;-50
2023/01/17 03:10:38;;;;;;;2.15;0.60;;;5.60;66.90;;;0.61;94.69;92963.19;4931638;29;20031;-51
2023/01/17 03:13:10;;;;;;;0.82;0.43;;;5.60;66.70;;;0.56;94.66;92963.97;4944968;29;20035;-51
2023/01/17 03:15:39;;;;;;;2.35;0.60;;;5.60;66.60;;;0.55;93.79;92961.63;4934176;29;20053;-54
2023/01/17 03:18:14;;;;;;;0.93;0.60;;;5.60;66.50;;;0.53;94.00;92956.66;4919588;29;20027;-52
2023/01/17 03:20:40;;;;;;;1.80;0.40;;;5.60;66.50;;;0.51;93.71;92953.53;4946098;29;20068;-52
2023/01/17 03:23:06;;;;;;;1.38;0.63;;;5.60;66.40;;;0.47;95.51;92955.13;4929941;29;20034;-54
2023/01/17 03:25:32;;;;;;;1.05;0.60;;;5.60;66.40;;;0.44;94.94;92950.41;4946822;29;20034;-53
2023/01/17 03:27:58;;;;;;;0.70;0.50;;;5.60;66.30;;;0.41;94.65;92937.84;4934634;29;20023;-52
2023/01/17 03:30:45;;;;;;;1.27;0.60;;;5.50;66.20;;;0.35;94.55;92944.13;4934510;29;20074;-53
2023/01/17 03:33:24;;;;;;;1.35;0.40;;;5.50;66.10;;;0.29;95.63;92945.19;4945565;28;20117;-51
2023/01/17 03:35:50;;;;;;;3.20;0.60;;;5.40;66.10;;;0.23;95.02;92939.16;4924863;29;20031;-55
2023/01/17 03:38:16;;;;;;;1.05;0.50;;;5.40;66.00;;;0.19;95.14;92940.75;4947884;28;20035;-58
2023/01/17 03:40:45;;;;;;;0.47;0.47;;;5.30;66.00;;;0.15;95.32;92939.69;4946090;28;20551;-52
2023/01/17 03:43:17;;;;;;;0.50;0.50;;;5.30;66.10;;;0.08;95.23;92945.22;4938614;28;20031;-54
2023/01/17 03:45:43;;;;;;;3.00;0.90;;;5.20;66.00;;;-0.01;95.56;92941.53;4948458;28;20376;-51
2023/01/17 03:48:15;;;;;;;2.03;0.70;;;5.10;66.00;;;-0.09;96.96;92939.47;4949360;28;20031;-53
2023/01/17 03:50:41;;;;;;;1.58;0.57;;;5.10;66.10;;;-0.21;97.43;92938.94;4934934;28;20050;-53
2023/01/17 03:53:07;;;;;;;7.15;0.68;;;5.00;66.10;;;-0.27;97.48;92930.31;4941138;28;20022;-55
2023/01/17 03:55:32;;;;;;;0.70;0.60;;;4.90;66.10;;;-0.32;97.50;92936.31;4941966;28;20035;-53
2023/01/17 03:57:58;;;;;;;2.75;0.60;;;4.80;66.10;;;-0.41;97.72;92932.66;4949069;28;20039;-53
2023/01/17 04:00:24;;;;;;;4.28;0.70;;;4.80;66.20;;;-0.45;98.20;92925.59;4923994;29;20111;-55
2023/01/17 04:02:50;;;;;;;1.25;0.57;;;4.70;66.30;;;-0.51;98.64;92932.66;4937511;28;20027;-53
2023/01/17 04:05:19;;;;;;;0.73;0.40;;;4.70;66.40;;;-0.60;99.42;92926.34;4933670;29;20026;-56
2023/01/17 04:07:45;;;;;;;1.25;0.60;;;4.60;66.40;;;-0.66;99.36;92922.16;4934017;29;20413;-57
2023/01/17 04:10:11;;;;;;;1.67;0.90;;;4.50;66.40;;;-0.66;99.63;92916.94;4933556;29;20398;-52
2023/01/17 04:12:37;;;;;;;0.57;0.50;;;4.50;66.60;;;-0.72;99.93;92914.31;4944941;28;20122;-55
2023/01/17 04:15:03;;;;;;;0.80;0.60;;;4.40;66.60;;;-0.78;99.84;92909.34;4925199;29;20114;-55
2023/01/17 04:17:32;;;;;;;1.13;0.80;;;4.40;67.40;;;-0.87;99.71;92901.22;4937101;28;20027;-54
2023/01/17 04:19:58;;;;;;;1.88;0.75;;;4.30;66.60;;;-0.94;99.99;92895.44;4916298;29;20049;-56
2023/01/17 04:22:30;;;;;;;1.05;0.65;;;4.30;66.70;;;-0.97;100.00;92891.53;4931699;29;20049;-57
2023/01/17 04:24:57;;;;;;;1.42;0.90;;;4.20;66.70;;;-1.03;100.00;92889.19;4934060;29;20053;-52
2023/01/17 04:27:26;;;;;;;1.88;0.80;;;4.10;66.70;;;-1.08;100.00;92894.38;4951018;28;20390;-58
2023/01/17 04:29:52;;;;;;;3.85;0.80;;;4.10;66.70;;;-1.10;100.00;92891.22;4927140;29;20031;-56
2023/01/17 04:32:18;;;;;;;1.05;0.75;;;4.00;66.80;;;-1.24;100.00;92894.34;4931943;29;20959;-58
2023/01/17 04:34:44;;;;;;;0.82;0.50;;;3.90;66.80;;;-1.25;100.00;92900.63;4933116;28;20402;-58
2023/01/17 04:37:10;;;;;;;2.72;0.80;;;3.90;66.90;;;-1.27;100.00;92883.63;4934258;29;20030;-56
2023/01/17 04:39:35;;;;;;;1.20;0.70;;;3.80;67.00;;;-1.28;100.00;92882.06;4923732;28;20398;-54
2023/01/17 04:42:07;;;;;;;1.63;0.70;;;3.80;67.10;;;-1.33;100.00;92868.97;4932303;29;20020;-55
2023/01/17 04:44:33;;;;;;;1.33;0.80;;;3.70;67.10;;;-1.37;100.00;92867.94;4932948;29;20038;-55
2023/01/17 04:47:02;;;;;;;0.95;0.70;;;3.70;67.20;;;-1.42;100.00;92868.69;4930005;29;20023;-56
2023/01/17 04:49:31;;;;;;;3.13;0.77;;;3.60;67.20;;;-1.46;100.00;92859.81;4933772;29;20050;-54
2023/01/17 04:51:57;;;;;;;2.88;0.68;;;3.60;67.30;;;-1.48;100.00;92854.03;4930722;28;20048;-58
2023/01/17 04:54:26;;;;;;;1.10;0.70;;;3.50;67.30;;;-1.50;100.00;92845.69;4913596;29;20113;-56
2023/01/17 04:56:58;;;;;;;1.27;0.65;;;3.50;67.40;;;-1.59;100.00;92847.22;4911196;29;20038;-54
2023/01/17 04:59:23;;;;;;;0.65;0.65;;;3.50;67.50;;;-1.59;100.00;92844.63;4909133;29;20082;-58
2023/01/17 05:01:49;;;;;;;0.82;0.60;;;3.50;67.50;;;-1.60;100.00;92843.03;4907426;29;20027;-57
2023/01/17 05:04:18;;;;;;;6.47;0.80;;;3.40;67.50;;;-1.64;100.00;92840.94;4921609;29;20418;-56
2023/01/17 05:06:44;;;;;;;1.08;0.82;;;3.40;67.50;;;-1.65;100.00;92841.19;4913577;29;20031;-53
2023/01/17 05:09:24;;;;;;;1.23;0.73;;;3.40;67.50;;;-1.71;100.00;92843.00;4914563;29;20027;-54
2023/01/17 05:11:50;;;;;;;0.95;0.70;;;3.40;67.60;;;-1.72;100.00;92846.66;4908470;29;20027;-56
2023/01/17 05:14:33;;;;;;;2.03;0.68;;;3.30;67.50;;;-1.76;100.00;92848.19;4906842;29;20039;-54
2023/01/17 05:17:04;;;;;;;1.05;0.63;;;3.30;67.70;;;-1.79;100.00;92847.91;4896898;29;20039;-56
2023/01/17 05:19:30;;;;;;;0.57;0.57;;;3.30;67.70;;;-1.81;100.00;92831.75;4913777;29;20070;-54
2023/01/17 05:22:02;;;;;;;1.52;0.70;;;3.20;67.70;;;-1.79;100.00;92840.88;4899610;29;20487;-53
2023/01/17 05:24:30;;;;;;;2.13;0.80;;;3.20;67.80;;;-1.80;100.00;92831.47;4912879;29;20062;-55
2023/01/17 05:27:08;;;;;;;2.83;0.90;;;3.20;67.80;;;-1.82;100.00;92824.94;4897074;29;20571;-56
2023/01/17 05:29:34;;;;;;;1.65;1.13;;;3.20;67.90;;;-1.86;100.00;92827.28;4910784;29;20505;-56
2023/01/17 05:32:06;;;;;;;2.03;1.00;;;3.20;67.90;;;-1.89;100.00;92827.78;4911618;29;20111;-55
2023/01/17 05:34:33;;;;;;;1.10;0.70;;;3.10;67.80;;;-1.92;100.00;92825.69;4926040;29;20525;-58
2023/01/17 05:37:05;;;;;;;3.17;0.90;;;3.10;67.80;;;-1.91;100.00;92816.84;4913721;29;20035;-55
2023/01/17 05:39:31;;;;;;;1.17;0.80;;;3.10;68.00;;;-1.93;100.00;92818.91;4904651;29;20028;-58
2023/01/17 05:41:58;;;;;;;1.55;0.90;;;3.10;68.00;;;-1.97;100.00;92802.19;4895851;29;20082;-56
2023/01/17 05:44:27;;;;;;;3.10;0.93;;;3.10;68.10;;;-2.02;100.00;92799.56;4912794;29;20020;-56
2023/01/17 05:46:59;;;;;;;2.38;1.00;;;3.10;68.10;;;-1.98;100.00;92805.81;4919812;29;20075;-55
2023/01/17 05:49:27;;;;;;;3.17;1.23;;;3.10;68.20;;;-1.93;100.00;92808.47;4907209;29;20035;-55
2023/01/17 05:51:53;;;;;;;1.02;0.82;;;3.10;68.20;;;-1.93;100.00;92821.50;4929390;28;20498;-59
2023/01/17 05:54:28;;;;;;;2.63;0.80;;;3.10;68.20;;;-1.94;100.00;92820.72;4947511;28;20054;-54
2023/01/17 05:56:54;;;;;;;2.53;0.88;;;3.10;68.20;;;-1.98;100.00;92829.31;4924253;28;20137;-51
2023/01/17 05:59:20;;;;;;;3.40;1.05;;;3.10;68.10;;;-2.00;100.00;92820.97;4932874;28;20177;-54
2023/01/17 06:01:46;;;;;;;1.90;0.90;;;3.10;68.20;;;-1.98;100.00;92819.66;4934002;28;20633;-57
2023/01/17 06:04:18;;;;;;;1.45;0.80;;;3.10;68.20;;;-1.97;100.00;92820.47;4947002;28;20165;-54
2023/01/17 06:06:44;;;;;;;0.75;0.75;;;3.10;68.20;;;-1.97;100.00;92825.69;4933239;28;20185;-56
2023/01/17 06:09:10;;;;;;;3.25;0.90;;;3.10;68.30;;;-2.01;100.00;92819.38;4936596;28;20109;-55
2023/01/17 06:11:38;;;;;;;1.42;1.13;;;3.10;68.20;;;-2.01;100.00;92817.53;4928215;28;20022;-57
2023/01/17 06:14:04;;;;;;;3.38;1.10;;;3.10;68.30;;;-2.04;100.00;92814.66;4949038;28;20027;-56
2023/01/17 06:16:30;;;;;;;3.55;1.00;;;3.10;68.30;;;-2.06;100.00;92809.72;4925399;28;20544;-51
2023/01/17 06:18:55;;;;;;;1.85;0.70;;;3.10;68.30;;;-2.06;100.00;92816.75;4948448;28;20042;-57
2023/01/17 06:21:21;;;;;;;3.90;1.10;;;3.10;68.30;;;-2.09;100.00;92812.81;4933251;28;20039;-52
2023/01/17 06:23:53;;;;;;;4.43;1.33;;;3.10;68.30;;;-2.13;100.00;92796.91;4949545;28;20034;-56
2023/01/17 06:26:19;;;;;;;2.10;1.00;;;3.10;68.30;;;-2.12;100.00;92795.06;4949517;28;20121;-53
2023/01/17 06:28:45;;;;;;;2.78;0.90;;;3.10;68.30;;;-2.05;100.00;92787.03;4947139;28;20400;-58
2023/01/17 06:31:11;;;;;;;4.05;1.20;;;3.10;68.40;;;-2.07;100.00;92774.22;4933349;29;20034;-54
2023/01/17 06:33:37;;;;;;;3.83;0.93;;;3.10;68.40;;;-2.02;100.00;92779.47;4948715;28;20802;-54
2023/01/17 06:36:04;;;;;;;2.55;1.13;;;3.10;68.40;;;-2.04;100.00;92778.91;4932316;28;20541;-54
2023/01/17 06:38:30;;;;;;;1.27;0.93;;;3.10;68.50;;;-2.07;100.00;92771.59;4944263;28;20061;-57
2023/01/17 06:40:59;;;;;;;4.35;0.93;;;3.10;68.40;;;-2.03;100.00;92761.47;4891283;28;20035;-52
2023/01/17 06:43:27;;;;;;;2.58;1.00;;;3.10;68.40;;;-1.99;100.00;92765.91;4918623;29;20032;-54
2023/01/17 06:45:54;;;;;;;4.03;1.10;;;3.10;68.40;;;-1.97;100.00;92765.66;4929317;29;20043;-51
2023/01/17 06:48:22;;;;;;;1.20;0.85;;;3.10;68.40;;;-1.97;100.00;92761.22;4936747;29;20470;-56
2023/01/17 06:50:50;;;;;;;1.48;1.10;;;3.10;68.30;;;-1.97;100.00;92748.19;4941598;28;20050;-55
2023/01/17 06:53:18;;;;;;;5.25;1.30;;;3.10;68.30;;;-1.99;100.00;92745.03;4932298;29;20058;-55
2023/01/17 06:55:44;;;;;;;2.13;1.08;;;3.10;68.30;;;-1.97;100.00;92742.19;4948482;28;20381;-53
2023/01/17 06:58:10;;;;;;;4.05;0.80;;;3.10;68.30;;;-1.99;100.00;92733.81;4931244;29;20022;-54
2023/01/17 07:00:36;;;;;;;2.63;1.10;;;3.10;68.30;;;-2.01;100.00;92741.88;4948074;28;20042;-53
2023/01/17 07:03:02;;;;;;;1.65;0.95;;;3.10;68.30;;;-2.04;100.00;92747.63;4958938;28;20105;-55
2023/01/17 07:05:28;;;;;;;1.27;1.13;;;3.00;68.30;;;-2.05;100.00;92746.06;4848733;28;21503;-54
2023/01/17 07:07:54;;;;;;;2.45;0.90;;;3.00;68.40;;;-2.00;100.00;92740.09;4878751;29;64261;-54
2023/01/17 07:10:22;;;;;;;2.55;0.90;;;3.10;68.40;;;-2.00;100.00;92753.13;4916079;29;20039;-53
2023/01/17 07:12:56;;;;;;;2.03;0.88;;;3.00;68.30;;;-2.00;100.00;92740.09;4918320;29;20077;-54
2023/01/17 07:15:22;;;;;;;1.60;0.93;;;3.10;68.40;;;-2.03;100.00;92738.00;4934969;28;20031;-54
2023/01/17 07:17:47;;;;;;;1.15;0.80;;;3.10;68.40;;;-2.00;100.00;92743.47;4912484;29;20015;-56
2023/01/17 07:20:13;;;;;;;3.35;1.00;;;3.10;68.40;;;-2.00;100.00;92743.47;4916785;29;20060;-52
2023/01/17 07:22:48;;;;;;;0.95;0.70;;;3.10;68.30;;;-1.99;100.00;92741.66;4932076;29;20094;-53
2023/01/17 07:25:20;;;;;;;2.25;0.98;;;3.20;68.40;;;-1.99;100.00;92734.59;4933428;29;20504;-51
2023/01/17 07:27:46;;;;;;;2.17;1.10;;;3.20;68.40;;;-2.00;100.00;92732.25;4921265;29;20506;-50
2023/01/17 07:30:18;;;;;;;2.10;1.20;;;3.20;68.30;;;-1.97;100.00;92737.75;4900033;29;20038;-57
2023/01/17 07:32:54;;;;;;;1.25;1.02;;;3.20;68.30;;;-1.97;100.00;92729.94;4910047;29;20031;-53
2023/01/17 07:35:22;;;;;;;3.05;0.90;;;3.20;68.30;;;-2.00;100.00;92725.22;4928158;29;20039;-53
2023/01/17 07:37:56;;;;;;;1.05;0.75;;;3.30;68.30;;;-1.94;100.00;92726.81;4912767;29;20073;-55
2023/01/17 07:40:23;;;;;;;0.90;0.70;;;3.30;68.30;;;-1.90;100.00;92711.41;4909225;28;20597;-59
2023/01/17 07:42:49;;;;;;;3.30;0.73;;;3.30;68.30;;;-1.85;100.00;92719.22;4936214;28;20446;-56
2023/01/17 07:45:20;;;;;;;1.42;0.75;;;3.40;68.30;;;-1.83;100.00;92717.16;4933195;29;20114;-50
2023/01/17 07:47:48;;;;;;;3.42;1.00;;;3.40;68.30;;;-1.78;100.00;92714.56;4931290;29;20027;-52
2023/01/17 07:50:14;;;;;;;4.45;1.13;;;3.50;68.30;;;-1.78;100.00;92719.78;4932485;29;20035;-53
2023/01/17 07:52:50;;;;;;;1.42;0.73;;;3.50;68.20;;;-1.74;100.00;92722.66;4915763;29;20023;-50
2023/01/17 07:55:16;;;;;;;4.05;1.15;;;3.60;68.20;;;-1.72;100.00;92728.44;4907230;29;20038;-50
2023/01/17 07:57:42;;;;;;;3.17;1.50;;;3.60;68.10;;;-1.64;100.00;92727.91;4899264;28;28240;-52
2023/01/17 08:00:10;;;;;;;2.92;1.60;;;3.70;68.20;;;-1.56;100.00;92726.63;4909825;29;20046;-55
2023/01/17 08:02:36;;;;;;;3.72;1.80;;;3.70;68.20;;;-1.51;100.00;92711.72;4929392;29;20106;-54
2023/01/17 08:05:01;;;;;;;5.28;1.30;;;3.80;68.30;;;-1.43;100.00;92713.84;4925907;29;20134;-57
2023/01/17 08:07:28;;;;;;;6.75;1.60;;;3.90;68.20;;;-1.37;100.00;92701.56;4933639;28;20094;-58
2023/01/17 08:09:54;;;;;;;3.78;1.48;;;4.00;68.20;;;-1.28;100.00;92688.78;4911891;29;20086;-58
2023/01/17 08:12:24;;;;;;;3.80;1.40;;;4.10;68.20;;;-1.23;100.00;92692.16;4925377;28;20542;-57
2023/01/17 08:14:50;;;;;;;5.68;1.20;;;4.20;68.10;;;-1.19;100.00;92685.38;4919153;29;20039;-58
2023/01/17 08:17:17;;;;;;;4.03;2.35;;;4.30;67.90;;;-1.11;100.00;92671.00;4930029;29;20497;-58
2023/01/17 08:19:43;;;;;;;11.07;2.35;;;4.40;67.80;;;-1.05;100.00;92664.72;4929227;29;20126;-57
2023/01/17 08:22:11;;;;;;;1.92;1.20;;;4.50;67.70;;;-1.11;100.00;92657.16;4915044;29;20405;-56
2023/01/17 08:24:43;;;;;;;3.58;1.25;;;4.50;67.50;;;-1.04;100.00;92647.22;4933229;29;20034;-54
2023/01/17 08:27:12;;;;;;;3.25;1.05;;;4.60;67.50;;;-0.93;100.00;92643.53;4933243;29;20487;-52
2023/01/17 08:29:41;;;;;;;1.40;1.00;;;4.70;67.50;;;-0.89;100.00;92633.34;4930110;29;20121;-55
2023/01/17 08:32:07;;;;;;;0.90;0.50;;;4.70;67.30;;;-0.81;100.00;92632.81;4931286;29;20027;-55
2023/01/17 08:34:33;;;;;;;2.15;0.80;;;4.80;67.40;;;-0.75;99.82;92642.19;4932322;29;20057;-59
2023/01/17 08:37:05;;;;;;;0.68;0.50;;;4.90;67.30;;;-0.68;99.71;92636.69;4933030;29;20038;-52
2023/01/17 08:39:36;;;;;;;1.58;0.70;;;4.90;67.30;;;-0.59;98.72;92646.34;4915613;29;20482;-58
2023/01/17 08:42:06;;;;;;;1.75;0.70;;;5.10;67.30;;;-0.52;98.42;92652.06;4928501;28;20363;-58
2023/01/17 08:44:35;;;;;;;3.15;0.70;;;5.10;67.10;;;-0.50;96.17;92651.81;4926423;29;20026;-58
2023/01/17 08:47:07;;;;;;;1.35;0.47;;;5.20;67.10;;;-0.39;96.29;92649.91;4911566;29;20098;-58
2023/01/17 08:49:33;;;;;;;1.23;0.60;;;5.30;67.00;;;-0.31;94.96;92636.28;4901081;29;20090;-58
2023/01/17 08:52:01;;;;;;;2.90;0.70;;;5.30;66.90;;;-0.28;94.22;92633.13;4914829;29;20055;-54
2023/01/17 08:54:27;;;;;;;1.00;0.70;;;5.40;66.80;;;-0.28;94.18;92618.22;4915252;28;20478;-57
2023/01/17 08:57:02;;;;;;;1.17;0.60;;;5.40;66.60;;;-0.20;92.90;92605.63;4941351;28;20407;-58
2023/01/17 08:59:31;;;;;;;2.50;0.90;;;5.50;66.40;;;-0.15;93.18;92601.16;4903922;28;25289;-58
2023/01/17 09:02:14;;;;;;;2.05;0.73;;;5.50;66.20;;;-0.16;93.15;92596.94;4933247;28;20110;-58
2023/01/17 09:04:50;;;;;;;0.73;0.70;;;5.60;66.10;;;-0.14;93.47;92579.16;4944653;28;20047;-58
2023/01/17 09:07:19;;;;;;;4.85;1.00;;;5.60;66.00;;;-0.14;93.81;92560.84;4943399;28;20070;-58
2023/01/17 09:09:48;;;;;;;3.35;1.10;;;5.60;65.90;;;-0.15;93.08;92561.91;4916690;28;20038;-58
2023/01/17 09:12:14;;;;;;;1.45;0.80;;;5.60;65.80;;;-0.12;93.23;92571.03;4936385;28;20035;-56
2023/01/17 09:14:42;;;;;;;3.05;1.08;;;5.60;65.70;;;-0.10;93.38;92569.69;4928944;28;20034;-55
2023/01/17 09:17:08;;;;;;;2.05;0.98;;;5.60;65.60;;;-0.07;93.62;92556.06;4911268;29;20066;-56
2023/01/17 09:19:34;;;;;;;2.33;1.30;;;5.70;65.60;;;-0.01;92.91;92560.22;4912501;29;20022;-56
2023/01/17 09:22:03;;;;;;;3.47;1.00;;;5.70;65.50;;;-0.02;92.00;92563.13;4914496;28;20031;-58
2023/01/17 09:24:31;;;;;;;2.55;1.05;;;5.80;65.40;;;-0.01;91.70;92559.44;4933066;28;20505;-56
2023/01/17 09:26:57;;;;;;;1.23;0.95;;;5.80;65.30;;;0.03;92.09;92563.06;4913037;29;20519;-55
2023/01/17 09:29:25;;;;;;;1.40;1.00;;;5.80;65.20;;;0.07;92.21;92569.34;4930004;29;20108;-56
2023/01/17 09:31:51;;;;;;;3.95;1.00;;;5.80;65.10;;;0.07;90.64;92573.81;4912742;29;20027;-54
2023/01/17 09:34:17;;;;;;;2.83;1.08;;;5.90;65.10;;;-0.01;89.98;92568.06;4934220;28;20139;-55
2023/01/17 09:36:49;;;;;;;1.67;1.13;;;5.90;64.90;;;0.02;90.67;92577.22;4915863;29;20031;-59
2023/01/17 09:39:16;;;;;;;2.22;1.40;;;5.90;64.70;;;0.10;90.89;92575.88;4899707;29;20029;-59
2023/01/17 09:42:11;;;;;;;1.70;1.20;;;5.90;64.70;;;0.03;91.02;92568.31;4933461;28;20033;-59
2023/01/17 09:44:50;;;;;;;2.70;1.30;;;6.00;64.60;;;-0.03;89.52;92569.41;4925449;29;20073;-59
2023/01/17 09:47:54;;;;;;;1.77;1.20;;;6.00;64.40;;;-0.02;89.59;92568.34;4914752;29;20110;-57
2023/01/17 09:50:49;;;;;;;3.60;1.40;;;6.00;64.20;;;0.13;89.25;92564.84;4875927;29;20560;-57
2023/01/17 09:53:25;;;;;;;6.60;1.40;;;6.00;64.20;;;0.21;89.60;92567.66;4884580;29;20095;-59
2023/01/17 09:56:12;;;;;;;3.70;1.40;;;6.10;64.20;;;0.23;88.34;92573.41;4893647;29;20391;-59
2023/01/17 09:59:46;;;;;;;2.10;1.13;;;6.10;64.00;;;0.22;87.14;92571.06;4897754;29;20432;-58
2023/01/17 10:03:04;;;;;;;4.78;1.50;;;6.20;63.80;;;0.27;88.69;92570.25;4874552;29;20033;-57
2023/01/17 10:06:18;;;;;;;3.15;1.48;;;6.20;63.70;;;0.36;88.82;92561.53;4900031;29;20106;-55
2023/01/17 10:09:46;;;;;;;2.55;1.35;;;6.20;63.70;;;0.42;87.61;92557.81;4898530;29;20031;-58
2023/01/17 10:13:14;;;;;;;2.80;1.33;;;6.30;63.70;;;0.48;87.05;92563.78;4899840;29;20032;-57
2023/01/17 10:16:29;;;;;;;4.97;1.50;;;6.30;63.60;;;0.58;87.66;92571.56;4889846;29;20027;-59
2023/01/17 10:19:19;;;;;;;2.42;1.30;;;6.40;63.60;;;0.70;86.90;92565.94;4883040;29;20102;-59
2023/01/17 10:22:11;;;;;;;1.30;1.17;;;6.50;63.70;;;0.80;86.00;92565.06;4879538;29;20033;-58
2023/01/17 10:25:31;;;;;;;2.38;1.30;;;6.70;63.60;;;0.80;85.38;92567.69;4876577;29;20079;-59
2023/01/17 10:28:08;;;;;;;1.98;1.10;;;6.80;63.30;;;0.79;85.44;92559.06;4884097;29;20020;-59
2023/01/17 10:31:00;;;;;;;2.38;1.10;;;6.80;63.10;;;0.81;84.67;92558.75;4890438;29;20102;-57
2023/01/17 10:33:40;;;;;;;2.72;1.02;;;6.90;62.80;;;0.81;84.40;92543.03;4887016;29;20063;-58
2023/01/17 10:36:38;;;;;;;5.25;1.27;;;6.90;62.60;;;0.83;84.04;92540.94;4891706;29;20391;-56
2023/01/17 10:39:28;;;;;;;2.78;1.50;;;7.00;62.40;;;0.86;84.70;92541.16;4884553;29;20506;-58
2023/01/17 10:43:11;;;;;;;3.55;1.50;;;7.00;62.10;;;0.97;84.92;92528.72;4896892;29;20456;-56
2023/01/17 10:45:56;;;;;;;2.08;1.20;;;7.10;62.10;;;0.99;84.75;92518.72;4867141;29;20339;-58
2023/01/17 10:48:46;;;;;;;4.07;1.60;;;7.10;62.10;;;0.83;82.83;92522.59;4889210;29;20036;-58
2023/01/17 10:52:09;;;;;;;2.15;1.42;;;7.10;61.80;;;0.84;83.48;92511.81;4882842;29;20048;-58
2023/01/17 10:55:17;;;;;;;2.22;1.40;;;7.20;61.70;;;0.80;83.84;92500.34;4906756;29;20051;-52
2023/01/17 10:57:48;;;;;;;3.60;1.48;;;7.10;61.70;;;0.75;82.83;92495.13;4890326;29;20027;-58
2023/01/17 11:01:05;;;;;;;2.28;1.35;;;7.00;61.70;;;0.75;83.30;92489.13;4890954;29;20040;-57
2023/01/17 11:03:32;;;;;;;2.65;1.20;;;7.00;61.40;;;0.67;81.58;92485.28;4890169;29;20031;-56
2023/01/17 11:06:25;;;;;;;3.00;1.40;;;7.00;61.70;;;0.79;83.66;92475.19;4885033;29;20027;-53
2023/01/17 11:09:04;;;;;;;2.60;1.45;;;6.90;61.40;;;0.76;82.24;92470.50;4885948;29;20035;-58
2023/01/17 11:11:35;;;;;;;3.90;1.10;;;6.90;61.50;;;0.69;82.18;92463.00;4921000;29;20038;-56
2023/01/17 11:14:22;;;;;;;5.63;1.42;;;6.90;61.40;;;0.86;83.18;92459.91;4881357;29;20023;-56
2023/01/17 11:17:12;;;;;;;4.25;1.23;;;6.90;61.30;;;0.92;81.92;92461.41;4890945;29;20035;-56
2023/01/17 11:19:44;;;;;;;1.52;1.13;;;6.90;61.30;;;0.99;81.92;92458.44;4888787;29;20091;-58
2023/01/17 11:22:15;;;;;;;8.07;1.60;;;6.90;61.30;;;0.99;82.75;92445.34;4904986;29;20038;-58
2023/01/17 11:24:54;;;;;;;4.10;1.50;;;6.90;61.20;;;0.99;83.06;92442.72;4894938;29;20067;-57
2023/01/17 11:27:34;;;;;;;3.50;1.52;;;7.00;61.20;;;0.86;83.09;92449.44;4892812;29;20028;-55
2023/01/17 11:30:20;;;;;;;2.92;1.60;;;7.00;61.00;;;0.90;84.27;92447.03;4891833;29;20032;-57
2023/01/17 11:33:07;;;;;;;2.35;1.50;;;6.90;61.00;;;0.83;84.59;92444.75;4892379;29;20039;-55
2023/01/17 11:35:51;;;;;;;3.97;2.15;;;6.90;61.10;;;0.73;85.17;92431.78;4891274;29;20560;-57
2023/01/17 11:38:24;;;;;;;1.65;1.25;;;6.90;61.10;;;0.72;85.26;92429.41;4891836;29;20028;-54
2023/01/17 11:41:17;;;;;;;2.38;1.30;;;6.90;61.20;;;0.79;84.93;92429.88;4890579;29;20377;-55
2023/01/17 11:43:59;;;;;;;3.88;1.73;;;6.90;61.20;;;0.90;85.57;92420.81;4893768;29;20155;-57
2023/01/17 11:46:29;;;;;;;3.42;1.33;;;7.00;61.10;;;0.98;85.41;92409.72;4894061;29;20031;-58
2023/01/17 11:49:00;;;;;;;2.95;1.80;;;6.90;61.10;;;1.01;83.49;92416.25;4904234;29;20035;-58
2023/01/17 11:51:42;;;;;;;4.60;1.30;;;7.00;61.10;;;1.07;82.59;92418.50;4905701;29;20051;-53
2023/01/17 11:54:44;;;;;;;7.75;1.75;;;7.10;60.90;;;1.14;82.01;92418.94;4913007;29;20142;-58
2023/01/17 11:57:36;;;;;;;1.88;1.30;;;7.00;60.90;;;1.17;82.04;92412.34;4925378;29;20039;-55
2023/01/17 12:00:44;;;;;;;3.40;1.58;;;7.00;61.40;;;1.01;82.63;92411.78;4924250;29;20050;-55
2023/01/17 12:04:23;;;;;;;2.80;1.60;;;7.00;60.80;;;1.02;83.51;92397.59;4923112;28;20023;-57
2023/01/17 12:07:22;;;;;;;3.97;1.35;;;7.00;61.00;;;1.02;84.84;92396.81;4879839;29;20516;-58
2023/01/17 12:10:28;;;;;;;2.53;1.52;;;6.90;61.00;;;1.02;85.61;92392.34;4937985;28;20031;-57
2023/01/17 12:14:00;;;;;;;2.25;1.42;;;6.90;61.00;;;1.05;85.61;92388.41;4914314;29;20086;-56
2023/01/17 12:17:34;;;;;;;2.40;1.45;;;6.90;61.10;;;1.03;83.84;92380.03;4876752;29;20078;-55
2023/01/17 12:20:11;;;;;;;3.22;1.40;;;7.00;61.20;;;1.03;83.70;92372.94;4925403;29;20044;-58
2023/01/17 12:23:17;;;;;;;3.60;1.45;;;7.00;61.30;;;1.02;85.13;92352.25;4933485;28;20081;-58
2023/01/17 12:26:49;;;;;;;2.75;1.42;;;7.00;61.00;;;1.11;85.94;92332.22;4942667;28;20028;-56